Pagina principale
METAR-TAF:

METAR-TAF

Aeroporti :

East London, Sudafrica

latitudine: 33-02S, longitudine: 027-50E, altezza: 125 m

Osservazione

Il bollettino è stato emesso 1 ora e 1 minuti fa, alle 12:00 UTC
Vento 12 kt da est/nord-est
Temperature 32°C
Umidità 38%
Pressione 1006 hPa
Visibilità 10 km o più
Poco nuvoloso ad un'altezza di 3500 ft

METAR: FAEL 061200Z 06012KT 9999 FEW035 32/16 Q1006

Ora: 15:01 (13:01 UTC)

Previsione

Il bollettino è stato emesso 4 ore e 1 minuti fa, alle 09:00 UTC
Previsione valida dal 06 alle 10 UTC al 06 alle 19 UTC
Vento 13 kt da est/nord-est
Visibilità 10 km o più
nessuna nube inferiore a 1500 m e nessun cumulonembo
Evoluzione graduale
dal 06 alle 17 UTC al 06 alle 19 UTC
Vento 13 kt da sud-ovest
Nubi sparse ad un'altezza di 600 ft

TAF: FAEL 060900Z 0610/0619 07013KT CAVOK TX31/0610Z TN24/0618Z BECMG 0617/0619 23013KT SCT006

Osservazioni e previsioni meteorologiche di più di 4000 aeroporti (messaggi METAR e TAF).

Le stazioni disponibili sono rappresentate dai dischi gialli e rossi sulla carta.

Puntare il mouse per vedere il nome della stazione.

Clicca sopra per visualizzare le osservazioni e previsioni meteorologiche.

Per cambiare la mappa : fare clic sui pulsanti verdi con una croce nera per ingrandire, il pulsante verde con un trattino per diminuire, o sulla freccia verde per le mappe adiacenti.


METAR-TAF: